sensor_id;sensor_type;location;lat;lon;timestamp;P1;durP1;ratioP1;P2;durP2;ratioP2
32172;SDS011;18679;45.190;5.722;2022-10-26T00:01:59;4.30;;;1.40;;
32172;SDS011;18679;45.190;5.722;2022-10-26T00:05:00;9.02;;;1.63;;
32172;SDS011;18679;45.190;5.722;2022-10-26T00:08:01;2.80;;;1.67;;
32172;SDS011;18679;45.190;5.722;2022-10-26T00:11:02;7.05;;;1.45;;
32172;SDS011;18679;45.190;5.722;2022-10-26T00:14:03;4.68;;;1.70;;
32172;SDS011;18679;45.190;5.722;2022-10-26T00:17:04;6.32;;;1.90;;
32172;SDS011;18679;45.190;5.722;2022-10-26T00:20:05;3.65;;;1.60;;
32172;SDS011;18679;45.190;5.722;2022-10-26T00:23:07;3.17;;;1.80;;
32172;SDS011;18679;45.190;5.722;2022-10-26T00:26:08;3.30;;;1.67;;
32172;SDS011;18679;45.190;5.722;2022-10-26T00:29:12;5.68;;;1.88;;
32172;SDS011;18679;45.190;5.722;2022-10-26T00:32:13;10.55;;;1.77;;
32172;SDS011;18679;45.190;5.722;2022-10-26T00:35:14;3.88;;;1.77;;
32172;SDS011;18679;45.190;5.722;2022-10-26T00:38:14;4.80;;;1.85;;
32172;SDS011;18679;45.190;5.722;2022-10-26T00:41:21;6.05;;;1.70;;
32172;SDS011;18679;45.190;5.722;2022-10-26T00:48:07;4.70;;;1.50;;
32172;SDS011;18679;45.190;5.722;2022-10-26T00:51:14;2.25;;;1.60;;
32172;SDS011;18679;45.190;5.722;2022-10-26T00:54:26;13.45;;;1.73;;
32172;SDS011;18679;45.190;5.722;2022-10-26T00:57:28;7.95;;;1.80;;
32172;SDS011;18679;45.190;5.722;2022-10-26T01:00:29;9.93;;;2.08;;
32172;SDS011;18679;45.190;5.722;2022-10-26T01:03:30;5.25;;;2.00;;
32172;SDS011;18679;45.190;5.722;2022-10-26T01:06:32;6.15;;;1.88;;
32172;SDS011;18679;45.190;5.722;2022-10-26T01:09:35;7.78;;;1.92;;
32172;SDS011;18679;45.190;5.722;2022-10-26T01:12:36;6.03;;;2.47;;
32172;SDS011;18679;45.190;5.722;2022-10-26T01:18:50;10.02;;;2.75;;
32172;SDS011;18679;45.190;5.722;2022-10-26T01:21:59;11.90;;;3.13;;
32172;SDS011;18679;45.190;5.722;2022-10-26T01:25:21;14.25;;;3.45;;
32172;SDS011;18679;45.190;5.722;2022-10-26T01:32:01;20.30;;;5.28;;
32172;SDS011;18679;45.190;5.722;2022-10-26T01:39:08;12.30;;;4.25;;
32172;SDS011;18679;45.190;5.722;2022-10-26T01:42:18;14.65;;;5.25;;
32172;SDS011;18679;45.190;5.722;2022-10-26T01:45:22;16.23;;;4.13;;
32172;SDS011;18679;45.190;5.722;2022-10-26T01:48:24;13.60;;;2.40;;
32172;SDS011;18679;45.190;5.722;2022-10-26T01:51:28;3.35;;;1.95;;
32172;SDS011;18679;45.190;5.722;2022-10-26T01:54:33;11.82;;;2.38;;
32172;SDS011;18679;45.190;5.722;2022-10-26T01:57:35;6.43;;;2.03;;
32172;SDS011;18679;45.190;5.722;2022-10-26T02:00:37;8.43;;;2.38;;
32172;SDS011;18679;45.190;5.722;2022-10-26T02:04:06;6.07;;;1.63;;
32172;SDS011;18679;45.190;5.722;2022-10-26T02:10:59;6.25;;;2.00;;
32172;SDS011;18679;45.190;5.722;2022-10-26T02:17:26;5.63;;;1.63;;
32172;SDS011;18679;45.190;5.722;2022-10-26T02:20:32;8.73;;;1.92;;
32172;SDS011;18679;45.190;5.722;2022-10-26T02:23:35;5.28;;;1.63;;
32172;SDS011;18679;45.190;5.722;2022-10-26T02:26:40;3.03;;;1.50;;
32172;SDS011;18679;45.190;5.722;2022-10-26T02:29:45;4.20;;;1.58;;
32172;SDS011;18679;45.190;5.722;2022-10-26T02:32:49;4.90;;;1.65;;
32172;SDS011;18679;45.190;5.722;2022-10-26T02:35:54;5.32;;;1.60;;
32172;SDS011;18679;45.190;5.722;2022-10-26T02:38:57;6.78;;;1.30;;
32172;SDS011;18679;45.190;5.722;2022-10-26T02:42:00;2.47;;;1.48;;
32172;SDS011;18679;45.190;5.722;2022-10-26T02:45:05;8.82;;;1.80;;
32172;SDS011;18679;45.190;5.722;2022-10-26T02:48:09;7.68;;;1.40;;
32172;SDS011;18679;45.190;5.722;2022-10-26T02:54:15;7.70;;;1.40;;
32172;SDS011;18679;45.190;5.722;2022-10-26T02:57:25;7.20;;;1.45;;
32172;SDS011;18679;45.190;5.722;2022-10-26T03:00:28;5.50;;;2.10;;
32172;SDS011;18679;45.190;5.722;2022-10-26T03:03:30;3.67;;;1.77;;
32172;SDS011;18679;45.190;5.722;2022-10-26T03:06:30;7.75;;;1.63;;
32172;SDS011;18679;45.190;5.722;2022-10-26T03:09:31;14.07;;;1.95;;
32172;SDS011;18679;45.190;5.722;2022-10-26T03:12:33;12.75;;;2.08;;
32172;SDS011;18679;45.190;5.722;2022-10-26T03:15:33;11.43;;;1.63;;
32172;SDS011;18679;45.190;5.722;2022-10-26T03:18:34;3.92;;;1.77;;
32172;SDS011;18679;45.190;5.722;2022-10-26T03:21:35;3.30;;;1.70;;
32172;SDS011;18679;45.190;5.722;2022-10-26T03:24:36;3.33;;;1.38;;
32172;SDS011;18679;45.190;5.722;2022-10-26T03:27:37;8.25;;;1.63;;
32172;SDS011;18679;45.190;5.722;2022-10-26T03:30:38;5.88;;;1.38;;
32172;SDS011;18679;45.190;5.722;2022-10-26T03:33:39;7.30;;;1.90;;
32172;SDS011;18679;45.190;5.722;2022-10-26T03:36:39;5.20;;;1.80;;
32172;SDS011;18679;45.190;5.722;2022-10-26T03:39:40;10.32;;;2.00;;
32172;SDS011;18679;45.190;5.722;2022-10-26T03:42:41;4.75;;;2.03;;
32172;SDS011;18679;45.190;5.722;2022-10-26T03:45:42;5.88;;;1.55;;
32172;SDS011;18679;45.190;5.722;2022-10-26T03:48:43;10.70;;;2.17;;
32172;SDS011;18679;45.190;5.722;2022-10-26T03:51:43;6.10;;;1.60;;
32172;SDS011;18679;45.190;5.722;2022-10-26T03:54:44;5.90;;;2.38;;
32172;SDS011;18679;45.190;5.722;2022-10-26T03:57:45;9.50;;;2.28;;
32172;SDS011;18679;45.190;5.722;2022-10-26T04:00:46;14.05;;;2.58;;
32172;SDS011;18679;45.190;5.722;2022-10-26T04:03:47;10.02;;;2.13;;
32172;SDS011;18679;45.190;5.722;2022-10-26T04:06:48;6.50;;;2.30;;
32172;SDS011;18679;45.190;5.722;2022-10-26T04:09:49;6.35;;;2.67;;
32172;SDS011;18679;45.190;5.722;2022-10-26T04:12:50;7.30;;;1.80;;
32172;SDS011;18679;45.190;5.722;2022-10-26T04:15:51;5.60;;;2.13;;
32172;SDS011;18679;45.190;5.722;2022-10-26T04:18:52;8.90;;;2.67;;
32172;SDS011;18679;45.190;5.722;2022-10-26T04:21:53;13.95;;;2.70;;
32172;SDS011;18679;45.190;5.722;2022-10-26T04:24:53;4.43;;;1.80;;
32172;SDS011;18679;45.190;5.722;2022-10-26T04:27:54;2.97;;;1.60;;
32172;SDS011;18679;45.190;5.722;2022-10-26T04:30:55;7.65;;;1.90;;
32172;SDS011;18679;45.190;5.722;2022-10-26T04:33:56;8.45;;;1.98;;
32172;SDS011;18679;45.190;5.722;2022-10-26T04:36:57;3.55;;;2.03;;
32172;SDS011;18679;45.190;5.722;2022-10-26T04:39:58;5.72;;;2.00;;
32172;SDS011;18679;45.190;5.722;2022-10-26T04:42:58;14.10;;;2.38;;
32172;SDS011;18679;45.190;5.722;2022-10-26T04:45:59;12.90;;;2.17;;
32172;SDS011;18679;45.190;5.722;2022-10-26T04:49:00;11.52;;;2.17;;
32172;SDS011;18679;45.190;5.722;2022-10-26T04:52:01;7.25;;;2.60;;
32172;SDS011;18679;45.190;5.722;2022-10-26T04:55:02;10.07;;;2.65;;
32172;SDS011;18679;45.190;5.722;2022-10-26T04:58:05;3.92;;;2.30;;
32172;SDS011;18679;45.190;5.722;2022-10-26T05:01:06;5.93;;;2.03;;
32172;SDS011;18679;45.190;5.722;2022-10-26T05:04:07;10.93;;;2.20;;
32172;SDS011;18679;45.190;5.722;2022-10-26T05:07:08;7.28;;;2.05;;
32172;SDS011;18679;45.190;5.722;2022-10-26T05:10:09;10.40;;;2.00;;
32172;SDS011;18679;45.190;5.722;2022-10-26T05:13:10;4.03;;;2.15;;
32172;SDS011;18679;45.190;5.722;2022-10-26T05:16:10;11.18;;;2.65;;
32172;SDS011;18679;45.190;5.722;2022-10-26T05:19:11;5.10;;;2.35;;
32172;SDS011;18679;45.190;5.722;2022-10-26T05:22:12;5.43;;;2.50;;
32172;SDS011;18679;45.190;5.722;2022-10-26T05:25:13;4.78;;;2.17;;
32172;SDS011;18679;45.190;5.722;2022-10-26T05:28:14;15.82;;;2.65;;
32172;SDS011;18679;45.190;5.722;2022-10-26T05:31:18;12.82;;;2.97;;
32172;SDS011;18679;45.190;5.722;2022-10-26T05:34:19;5.80;;;2.20;;
32172;SDS011;18679;45.190;5.722;2022-10-26T05:37:20;11.65;;;2.65;;
32172;SDS011;18679;45.190;5.722;2022-10-26T05:40:21;13.73;;;2.72;;
32172;SDS011;18679;45.190;5.722;2022-10-26T05:43:22;8.57;;;2.47;;
32172;SDS011;18679;45.190;5.722;2022-10-26T05:46:23;9.50;;;2.83;;
32172;SDS011;18679;45.190;5.722;2022-10-26T05:49:24;4.65;;;2.28;;
32172;SDS011;18679;45.190;5.722;2022-10-26T05:52:25;5.97;;;2.33;;
32172;SDS011;18679;45.190;5.722;2022-10-26T05:55:26;10.73;;;2.15;;
32172;SDS011;18679;45.190;5.722;2022-10-26T05:58:27;8.85;;;2.63;;
32172;SDS011;18679;45.190;5.722;2022-10-26T06:05:04;7.30;;;2.42;;
32172;SDS011;18679;45.190;5.722;2022-10-26T06:08:09;6.78;;;2.75;;
32172;SDS011;18679;45.190;5.722;2022-10-26T06:11:10;4.95;;;2.28;;
32172;SDS011;18679;45.190;5.722;2022-10-26T06:14:11;11.70;;;2.97;;
32172;SDS011;18679;45.190;5.722;2022-10-26T06:24:03;7.63;;;2.20;;
32172;SDS011;18679;45.190;5.722;2022-10-26T06:30:33;8.20;;;3.00;;
32172;SDS011;18679;45.190;5.722;2022-10-26T06:33:34;13.50;;;2.63;;
32172;SDS011;18679;45.190;5.722;2022-10-26T06:36:35;8.48;;;3.08;;
32172;SDS011;18679;45.190;5.722;2022-10-26T06:39:38;10.07;;;2.90;;
32172;SDS011;18679;45.190;5.722;2022-10-26T06:42:46;28.77;;;3.55;;
32172;SDS011;18679;45.190;5.722;2022-10-26T06:45:47;9.82;;;2.78;;
32172;SDS011;18679;45.190;5.722;2022-10-26T06:49:17;14.15;;;3.72;;
32172;SDS011;18679;45.190;5.722;2022-10-26T06:52:34;12.20;;;2.88;;
32172;SDS011;18679;45.190;5.722;2022-10-26T06:55:54;8.93;;;2.80;;
32172;SDS011;18679;45.190;5.722;2022-10-26T06:59:00;11.10;;;3.35;;
32172;SDS011;18679;45.190;5.722;2022-10-26T07:02:08;11.00;;;3.03;;
32172;SDS011;18679;45.190;5.722;2022-10-26T07:05:13;7.82;;;2.85;;
32172;SDS011;18679;45.190;5.722;2022-10-26T07:08:14;12.32;;;2.70;;
32172;SDS011;18679;45.190;5.722;2022-10-26T07:11:21;19.75;;;3.47;;
32172;SDS011;18679;45.190;5.722;2022-10-26T07:14:22;11.15;;;2.97;;
32172;SDS011;18679;45.190;5.722;2022-10-26T07:17:23;11.13;;;2.67;;
32172;SDS011;18679;45.190;5.722;2022-10-26T07:20:26;13.57;;;3.00;;
32172;SDS011;18679;45.190;5.722;2022-10-26T07:23:27;11.73;;;2.40;;
32172;SDS011;18679;45.190;5.722;2022-10-26T07:26:28;7.53;;;2.38;;
32172;SDS011;18679;45.190;5.722;2022-10-26T07:29:29;14.07;;;2.97;;
32172;SDS011;18679;45.190;5.722;2022-10-26T07:32:29;4.55;;;2.35;;
32172;SDS011;18679;45.190;5.722;2022-10-26T07:35:31;7.53;;;2.95;;
32172;SDS011;18679;45.190;5.722;2022-10-26T07:38:33;14.02;;;2.65;;
32172;SDS011;18679;45.190;5.722;2022-10-26T07:41:34;24.35;;;2.95;;
32172;SDS011;18679;45.190;5.722;2022-10-26T07:44:35;10.75;;;2.60;;
32172;SDS011;18679;45.190;5.722;2022-10-26T07:47:36;11.23;;;3.00;;
32172;SDS011;18679;45.190;5.722;2022-10-26T07:50:37;6.25;;;3.03;;
32172;SDS011;18679;45.190;5.722;2022-10-26T07:53:37;14.68;;;2.92;;
32172;SDS011;18679;45.190;5.722;2022-10-26T07:56:38;6.72;;;2.83;;
32172;SDS011;18679;45.190;5.722;2022-10-26T07:59:39;14.27;;;3.10;;
32172;SDS011;18679;45.190;5.722;2022-10-26T08:02:40;12.15;;;3.28;;
32172;SDS011;18679;45.190;5.722;2022-10-26T08:05:41;11.45;;;2.42;;
32172;SDS011;18679;45.190;5.722;2022-10-26T08:08:42;14.80;;;3.40;;
32172;SDS011;18679;45.190;5.722;2022-10-26T08:11:43;12.57;;;3.20;;
32172;SDS011;18679;45.190;5.722;2022-10-26T08:14:44;8.93;;;3.20;;
32172;SDS011;18679;45.190;5.722;2022-10-26T08:17:45;9.32;;;3.80;;
32172;SDS011;18679;45.190;5.722;2022-10-26T08:20:46;16.55;;;4.07;;
32172;SDS011;18679;45.190;5.722;2022-10-26T08:23:47;9.95;;;3.80;;
32172;SDS011;18679;45.190;5.722;2022-10-26T08:26:48;11.52;;;3.53;;
32172;SDS011;18679;45.190;5.722;2022-10-26T08:29:48;6.18;;;3.05;;
32172;SDS011;18679;45.190;5.722;2022-10-26T08:32:56;11.82;;;3.95;;
32172;SDS011;18679;45.190;5.722;2022-10-26T08:36:03;12.07;;;3.88;;
32172;SDS011;18679;45.190;5.722;2022-10-26T08:39:05;16.05;;;3.72;;
32172;SDS011;18679;45.190;5.722;2022-10-26T08:42:09;7.90;;;3.33;;
32172;SDS011;18679;45.190;5.722;2022-10-26T08:45:32;10.05;;;3.72;;
32172;SDS011;18679;45.190;5.722;2022-10-26T08:48:39;11.70;;;3.42;;
32172;SDS011;18679;45.190;5.722;2022-10-26T08:51:46;23.75;;;3.95;;
32172;SDS011;18679;45.190;5.722;2022-10-26T08:54:52;21.60;;;4.15;;
32172;SDS011;18679;45.190;5.722;2022-10-26T08:57:56;11.63;;;4.20;;
32172;SDS011;18679;45.190;5.722;2022-10-26T09:01:01;6.22;;;3.08;;
32172;SDS011;18679;45.190;5.722;2022-10-26T09:04:02;11.77;;;3.50;;
32172;SDS011;18679;45.190;5.722;2022-10-26T09:14:20;8.85;;;4.45;;
32172;SDS011;18679;45.190;5.722;2022-10-26T09:23:56;17.88;;;3.33;;
32172;SDS011;18679;45.190;5.722;2022-10-26T09:30:27;13.30;;;3.92;;
32172;SDS011;18679;45.190;5.722;2022-10-26T09:33:30;5.60;;;3.22;;
32172;SDS011;18679;45.190;5.722;2022-10-26T09:36:36;8.77;;;2.85;;
32172;SDS011;18679;45.190;5.722;2022-10-26T09:43:23;7.30;;;2.90;;
32172;SDS011;18679;45.190;5.722;2022-10-26T09:46:33;7.97;;;3.20;;
32172;SDS011;18679;45.190;5.722;2022-10-26T09:49:58;20.58;;;2.83;;
32172;SDS011;18679;45.190;5.722;2022-10-26T09:53:06;10.68;;;2.85;;
32172;SDS011;18679;45.190;5.722;2022-10-26T09:56:10;11.85;;;3.25;;
32172;SDS011;18679;45.190;5.722;2022-10-26T09:59:13;10.48;;;3.17;;
32172;SDS011;18679;45.190;5.722;2022-10-26T10:02:36;18.00;;;3.40;;
32172;SDS011;18679;45.190;5.722;2022-10-26T10:05:44;17.50;;;3.38;;
32172;SDS011;18679;45.190;5.722;2022-10-26T10:12:24;19.20;;;3.83;;
32172;SDS011;18679;45.190;5.722;2022-10-26T10:15:24;15.38;;;3.50;;
32172;SDS011;18679;45.190;5.722;2022-10-26T10:18:26;10.80;;;3.47;;
32172;SDS011;18679;45.190;5.722;2022-10-26T10:24:41;8.77;;;3.25;;
32172;SDS011;18679;45.190;5.722;2022-10-26T10:27:52;9.35;;;2.58;;
32172;SDS011;18679;45.190;5.722;2022-10-26T10:30:54;14.25;;;3.22;;
32172;SDS011;18679;45.190;5.722;2022-10-26T10:33:58;8.85;;;2.92;;
32172;SDS011;18679;45.190;5.722;2022-10-26T10:36:59;17.13;;;4.00;;
32172;SDS011;18679;45.190;5.722;2022-10-26T10:40:02;15.70;;;2.97;;
32172;SDS011;18679;45.190;5.722;2022-10-26T10:43:13;7.07;;;2.88;;
32172;SDS011;18679;45.190;5.722;2022-10-26T10:46:18;8.45;;;3.15;;
32172;SDS011;18679;45.190;5.722;2022-10-26T10:49:24;8.20;;;2.90;;
32172;SDS011;18679;45.190;5.722;2022-10-26T10:52:30;11.85;;;3.08;;
32172;SDS011;18679;45.190;5.722;2022-10-26T10:55:34;10.55;;;2.75;;
32172;SDS011;18679;45.190;5.722;2022-10-26T11:02:00;11.43;;;3.15;;
32172;SDS011;18679;45.190;5.722;2022-10-26T11:11:36;8.80;;;3.38;;
32172;SDS011;18679;45.190;5.722;2022-10-26T11:15:05;13.40;;;4.88;;
32172;SDS011;18679;45.190;5.722;2022-10-26T11:18:17;8.77;;;2.88;;
32172;SDS011;18679;45.190;5.722;2022-10-26T11:21:27;8.05;;;2.85;;
32172;SDS011;18679;45.190;5.722;2022-10-26T11:24:31;7.85;;;2.60;;
32172;SDS011;18679;45.190;5.722;2022-10-26T11:27:44;6.40;;;2.25;;
32172;SDS011;18679;45.190;5.722;2022-10-26T11:30:51;8.23;;;2.58;;
32172;SDS011;18679;45.190;5.722;2022-10-26T11:37:18;11.52;;;2.65;;
32172;SDS011;18679;45.190;5.722;2022-10-26T11:40:29;7.28;;;2.42;;
32172;SDS011;18679;45.190;5.722;2022-10-26T11:43:46;17.45;;;2.45;;
32172;SDS011;18679;45.190;5.722;2022-10-26T11:46:51;9.52;;;2.33;;
32172;SDS011;18679;45.190;5.722;2022-10-26T11:50:05;10.32;;;2.42;;
32172;SDS011;18679;45.190;5.722;2022-10-26T11:56:44;10.30;;;2.00;;
32172;SDS011;18679;45.190;5.722;2022-10-26T12:03:00;9.68;;;2.53;;
32172;SDS011;18679;45.190;5.722;2022-10-26T12:06:07;9.15;;;2.60;;
32172;SDS011;18679;45.190;5.722;2022-10-26T12:09:11;6.25;;;2.20;;
32172;SDS011;18679;45.190;5.722;2022-10-26T12:21:51;4.50;;;1.92;;
32172;SDS011;18679;45.190;5.722;2022-10-26T12:37:38;10.88;;;2.05;;
32172;SDS011;18679;45.190;5.722;2022-10-26T12:40:39;10.40;;;2.53;;
32172;SDS011;18679;45.190;5.722;2022-10-26T12:43:42;5.63;;;2.63;;
32172;SDS011;18679;45.190;5.722;2022-10-26T12:46:43;9.63;;;2.50;;
32172;SDS011;18679;45.190;5.722;2022-10-26T12:53:09;4.38;;;2.08;;
32172;SDS011;18679;45.190;5.722;2022-10-26T12:56:14;14.20;;;2.78;;
32172;SDS011;18679;45.190;5.722;2022-10-26T13:09:35;13.18;;;2.40;;
32172;SDS011;18679;45.190;5.722;2022-10-26T13:12:58;9.82;;;2.70;;
32172;SDS011;18679;45.190;5.722;2022-10-26T13:15:59;9.20;;;2.33;;
32172;SDS011;18679;45.190;5.722;2022-10-26T13:19:02;5.25;;;2.33;;
32172;SDS011;18679;45.190;5.722;2022-10-26T13:22:03;10.77;;;2.63;;
32172;SDS011;18679;45.190;5.722;2022-10-26T13:25:05;6.28;;;2.42;;
32172;SDS011;18679;45.190;5.722;2022-10-26T13:34:40;10.48;;;2.13;;
32172;SDS011;18679;45.190;5.722;2022-10-26T13:37:46;9.40;;;2.38;;
32172;SDS011;18679;45.190;5.722;2022-10-26T13:40:49;14.18;;;2.75;;
32172;SDS011;18679;45.190;5.722;2022-10-26T13:43:59;13.38;;;3.15;;
32172;SDS011;18679;45.190;5.722;2022-10-26T13:47:13;11.48;;;2.70;;
32172;SDS011;18679;45.190;5.722;2022-10-26T13:50:29;10.18;;;2.75;;
32172;SDS011;18679;45.190;5.722;2022-10-26T13:53:50;7.93;;;2.72;;
32172;SDS011;18679;45.190;5.722;2022-10-26T14:00:19;16.15;;;2.80;;
32172;SDS011;18679;45.190;5.722;2022-10-26T14:03:21;21.75;;;3.95;;
32172;SDS011;18679;45.190;5.722;2022-10-26T14:06:35;11.48;;;3.10;;
32172;SDS011;18679;45.190;5.722;2022-10-26T14:09:37;13.52;;;3.10;;
32172;SDS011;18679;45.190;5.722;2022-10-26T14:12:38;15.25;;;3.13;;
32172;SDS011;18679;45.190;5.722;2022-10-26T14:15:41;14.25;;;3.05;;
32172;SDS011;18679;45.190;5.722;2022-10-26T14:18:43;14.20;;;2.63;;
32172;SDS011;18679;45.190;5.722;2022-10-26T14:21:45;13.45;;;2.95;;
32172;SDS011;18679;45.190;5.722;2022-10-26T14:24:53;12.82;;;2.80;;
32172;SDS011;18679;45.190;5.722;2022-10-26T14:27:55;16.13;;;3.08;;
32172;SDS011;18679;45.190;5.722;2022-10-26T14:31:11;17.48;;;3.28;;
32172;SDS011;18679;45.190;5.722;2022-10-26T14:34:19;16.63;;;2.60;;
32172;SDS011;18679;45.190;5.722;2022-10-26T14:37:34;9.50;;;2.45;;
32172;SDS011;18679;45.190;5.722;2022-10-26T14:40:48;13.15;;;2.75;;
32172;SDS011;18679;45.190;5.722;2022-10-26T14:43:51;15.13;;;2.50;;
32172;SDS011;18679;45.190;5.722;2022-10-26T14:46:55;11.38;;;2.55;;
32172;SDS011;18679;45.190;5.722;2022-10-26T14:49:56;13.60;;;2.47;;
32172;SDS011;18679;45.190;5.722;2022-10-26T14:52:59;12.65;;;2.47;;
32172;SDS011;18679;45.190;5.722;2022-10-26T14:56:01;9.30;;;2.30;;
32172;SDS011;18679;45.190;5.722;2022-10-26T14:59:11;13.68;;;2.50;;
32172;SDS011;18679;45.190;5.722;2022-10-26T15:02:18;16.50;;;2.65;;
32172;SDS011;18679;45.190;5.722;2022-10-26T15:05:27;13.88;;;3.05;;
32172;SDS011;18679;45.190;5.722;2022-10-26T15:08:53;19.08;;;3.10;;
32172;SDS011;18679;45.190;5.722;2022-10-26T15:11:55;9.40;;;3.35;;
32172;SDS011;18679;45.190;5.722;2022-10-26T15:18:35;9.10;;;2.53;;
32172;SDS011;18679;45.190;5.722;2022-10-26T15:24:39;16.08;;;4.05;;
32172;SDS011;18679;45.190;5.722;2022-10-26T15:27:40;14.98;;;3.42;;
32172;SDS011;18679;45.190;5.722;2022-10-26T15:30:41;23.52;;;4.05;;
32172;SDS011;18679;45.190;5.722;2022-10-26T15:37:02;17.92;;;5.20;;
32172;SDS011;18679;45.190;5.722;2022-10-26T15:40:05;17.60;;;3.40;;
32172;SDS011;18679;45.190;5.722;2022-10-26T15:43:07;16.17;;;4.88;;
32172;SDS011;18679;45.190;5.722;2022-10-26T15:46:10;10.05;;;3.65;;
32172;SDS011;18679;45.190;5.722;2022-10-26T15:49:18;15.93;;;2.75;;
32172;SDS011;18679;45.190;5.722;2022-10-26T15:52:19;13.98;;;3.05;;
32172;SDS011;18679;45.190;5.722;2022-10-26T15:55:20;9.93;;;2.95;;
32172;SDS011;18679;45.190;5.722;2022-10-26T15:58:21;10.65;;;3.08;;
32172;SDS011;18679;45.190;5.722;2022-10-26T16:01:24;12.23;;;3.38;;
32172;SDS011;18679;45.190;5.722;2022-10-26T16:04:26;13.73;;;3.30;;
32172;SDS011;18679;45.190;5.722;2022-10-26T16:07:27;16.63;;;3.92;;
32172;SDS011;18679;45.190;5.722;2022-10-26T16:10:28;12.20;;;3.25;;
32172;SDS011;18679;45.190;5.722;2022-10-26T16:13:29;11.93;;;3.25;;
32172;SDS011;18679;45.190;5.722;2022-10-26T16:16:30;16.65;;;3.67;;
32172;SDS011;18679;45.190;5.722;2022-10-26T16:19:31;12.50;;;4.03;;
32172;SDS011;18679;45.190;5.722;2022-10-26T16:22:33;16.45;;;3.75;;
32172;SDS011;18679;45.190;5.722;2022-10-26T16:25:34;14.75;;;3.70;;
32172;SDS011;18679;45.190;5.722;2022-10-26T16:28:41;13.38;;;3.90;;
32172;SDS011;18679;45.190;5.722;2022-10-26T16:31:42;8.85;;;3.35;;
32172;SDS011;18679;45.190;5.722;2022-10-26T16:34:42;11.82;;;3.97;;
32172;SDS011;18679;45.190;5.722;2022-10-26T16:37:44;17.77;;;4.10;;
32172;SDS011;18679;45.190;5.722;2022-10-26T16:40:45;26.00;;;3.95;;
32172;SDS011;18679;45.190;5.722;2022-10-26T16:43:46;12.02;;;4.40;;
32172;SDS011;18679;45.190;5.722;2022-10-26T16:46:47;9.32;;;3.60;;
32172;SDS011;18679;45.190;5.722;2022-10-26T16:49:48;19.27;;;3.88;;
32172;SDS011;18679;45.190;5.722;2022-10-26T16:52:48;12.68;;;4.80;;
32172;SDS011;18679;45.190;5.722;2022-10-26T16:55:49;9.05;;;3.83;;
32172;SDS011;18679;45.190;5.722;2022-10-26T16:58:50;14.40;;;4.45;;
32172;SDS011;18679;45.190;5.722;2022-10-26T17:01:51;13.57;;;4.07;;
32172;SDS011;18679;45.190;5.722;2022-10-26T17:04:52;18.00;;;4.22;;
32172;SDS011;18679;45.190;5.722;2022-10-26T17:07:53;24.27;;;3.85;;
32172;SDS011;18679;45.190;5.722;2022-10-26T17:10:54;11.52;;;3.33;;
32172;SDS011;18679;45.190;5.722;2022-10-26T17:14:06;16.15;;;3.53;;
32172;SDS011;18679;45.190;5.722;2022-10-26T17:17:07;15.13;;;3.33;;
32172;SDS011;18679;45.190;5.722;2022-10-26T17:20:09;23.00;;;4.85;;
32172;SDS011;18679;45.190;5.722;2022-10-26T17:23:10;18.05;;;4.07;;
32172;SDS011;18679;45.190;5.722;2022-10-26T17:26:12;23.98;;;4.82;;
32172;SDS011;18679;45.190;5.722;2022-10-26T17:29:13;14.70;;;3.78;;
32172;SDS011;18679;45.190;5.722;2022-10-26T17:32:14;13.18;;;4.40;;
32172;SDS011;18679;45.190;5.722;2022-10-26T17:35:15;16.70;;;3.90;;
32172;SDS011;18679;45.190;5.722;2022-10-26T17:38:16;17.40;;;3.85;;
32172;SDS011;18679;45.190;5.722;2022-10-26T17:41:17;16.20;;;3.55;;
32172;SDS011;18679;45.190;5.722;2022-10-26T17:44:21;9.25;;;3.95;;
32172;SDS011;18679;45.190;5.722;2022-10-26T17:47:22;26.60;;;4.20;;
32172;SDS011;18679;45.190;5.722;2022-10-26T17:50:23;18.08;;;3.80;;
32172;SDS011;18679;45.190;5.722;2022-10-26T17:53:24;16.05;;;3.28;;
32172;SDS011;18679;45.190;5.722;2022-10-26T17:56:26;13.05;;;3.13;;
32172;SDS011;18679;45.190;5.722;2022-10-26T17:59:28;9.82;;;3.13;;
32172;SDS011;18679;45.190;5.722;2022-10-26T18:02:29;15.70;;;3.50;;
32172;SDS011;18679;45.190;5.722;2022-10-26T18:05:30;16.25;;;3.85;;
32172;SDS011;18679;45.190;5.722;2022-10-26T18:08:31;16.45;;;3.63;;
32172;SDS011;18679;45.190;5.722;2022-10-26T18:11:33;15.63;;;4.05;;
32172;SDS011;18679;45.190;5.722;2022-10-26T18:14:34;15.63;;;3.65;;
32172;SDS011;18679;45.190;5.722;2022-10-26T18:17:35;15.68;;;4.78;;
32172;SDS011;18679;45.190;5.722;2022-10-26T18:20:36;14.63;;;4.45;;
32172;SDS011;18679;45.190;5.722;2022-10-26T18:23:38;18.15;;;5.18;;
32172;SDS011;18679;45.190;5.722;2022-10-26T18:26:39;25.42;;;5.40;;
32172;SDS011;18679;45.190;5.722;2022-10-26T18:29:40;21.55;;;5.60;;
32172;SDS011;18679;45.190;5.722;2022-10-26T18:32:41;21.00;;;5.78;;
32172;SDS011;18679;45.190;5.722;2022-10-26T18:35:42;20.05;;;4.85;;
32172;SDS011;18679;45.190;5.722;2022-10-26T18:38:47;13.48;;;4.25;;
32172;SDS011;18679;45.190;5.722;2022-10-26T18:41:48;15.02;;;3.92;;
32172;SDS011;18679;45.190;5.722;2022-10-26T18:44:49;20.25;;;4.95;;
32172;SDS011;18679;45.190;5.722;2022-10-26T18:47:50;15.45;;;4.85;;
32172;SDS011;18679;45.190;5.722;2022-10-26T18:50:51;25.77;;;4.75;;
32172;SDS011;18679;45.190;5.722;2022-10-26T18:53:52;21.40;;;5.07;;
32172;SDS011;18679;45.190;5.722;2022-10-26T18:56:53;25.30;;;4.43;;
32172;SDS011;18679;45.190;5.722;2022-10-26T18:59:54;13.27;;;4.78;;
32172;SDS011;18679;45.190;5.722;2022-10-26T19:02:54;17.30;;;4.72;;
32172;SDS011;18679;45.190;5.722;2022-10-26T19:05:55;21.15;;;4.45;;
32172;SDS011;18679;45.190;5.722;2022-10-26T19:08:56;26.13;;;5.00;;
32172;SDS011;18679;45.190;5.722;2022-10-26T19:11:57;17.15;;;4.35;;
32172;SDS011;18679;45.190;5.722;2022-10-26T19:14:58;11.05;;;4.18;;
32172;SDS011;18679;45.190;5.722;2022-10-26T19:17:59;21.15;;;5.00;;
32172;SDS011;18679;45.190;5.722;2022-10-26T19:21:22;20.38;;;5.55;;
32172;SDS011;18679;45.190;5.722;2022-10-26T19:24:23;19.27;;;5.57;;
32172;SDS011;18679;45.190;5.722;2022-10-26T19:27:25;12.80;;;4.47;;
32172;SDS011;18679;45.190;5.722;2022-10-26T19:30:26;16.67;;;4.35;;
32172;SDS011;18679;45.190;5.722;2022-10-26T19:33:27;13.88;;;4.60;;
32172;SDS011;18679;45.190;5.722;2022-10-26T19:36:29;13.65;;;4.20;;
32172;SDS011;18679;45.190;5.722;2022-10-26T19:39:30;24.50;;;4.80;;
32172;SDS011;18679;45.190;5.722;2022-10-26T19:42:31;11.55;;;4.10;;
32172;SDS011;18679;45.190;5.722;2022-10-26T19:45:33;19.35;;;4.18;;
32172;SDS011;18679;45.190;5.722;2022-10-26T19:48:35;19.88;;;3.85;;
32172;SDS011;18679;45.190;5.722;2022-10-26T19:51:36;15.25;;;3.70;;
32172;SDS011;18679;45.190;5.722;2022-10-26T19:54:37;17.20;;;5.57;;
32172;SDS011;18679;45.190;5.722;2022-10-26T19:57:38;16.02;;;5.53;;
32172;SDS011;18679;45.190;5.722;2022-10-26T20:00:39;32.00;;;4.93;;
32172;SDS011;18679;45.190;5.722;2022-10-26T20:03:40;18.10;;;5.25;;
32172;SDS011;18679;45.190;5.722;2022-10-26T20:06:41;17.98;;;4.72;;
32172;SDS011;18679;45.190;5.722;2022-10-26T20:09:43;13.15;;;4.20;;
32172;SDS011;18679;45.190;5.722;2022-10-26T20:12:43;17.10;;;5.35;;
32172;SDS011;18679;45.190;5.722;2022-10-26T20:15:44;25.83;;;5.35;;
32172;SDS011;18679;45.190;5.722;2022-10-26T20:18:45;14.02;;;4.78;;
32172;SDS011;18679;45.190;5.722;2022-10-26T20:21:46;18.35;;;5.88;;
32172;SDS011;18679;45.190;5.722;2022-10-26T20:24:49;14.27;;;5.18;;
32172;SDS011;18679;45.190;5.722;2022-10-26T20:27:50;20.27;;;5.57;;
32172;SDS011;18679;45.190;5.722;2022-10-26T20:30:51;15.07;;;5.07;;
32172;SDS011;18679;45.190;5.722;2022-10-26T20:33:52;17.45;;;5.38;;
32172;SDS011;18679;45.190;5.722;2022-10-26T20:36:53;27.92;;;5.45;;
32172;SDS011;18679;45.190;5.722;2022-10-26T20:39:53;20.05;;;5.95;;